Rock Point, MD (20682)

4:34 PM EST on November 26, 2014 (GMT -0500)
Notley Hall Farm | Change Station
CLOSE
Current Station
Personal Weather Station
Location: Chaptico, MD
Elevation: 20 ft
Nearby Weather Stations

Elev 20 ft 38.31 °N, 76.82 °W | Updated 31 seconds ago

Rain
Rain
36.1 °F
Feels Like 36 °F
N
0.0
Wind Variable Wind from North
Gusts 0.0 mph

Today
High -- | Low -- °F
--% Chance of Precip.
Yesterday
High -- | Low -- °F
Precip. -- in
7:00 AM 4:48 PM
Waxing Crescent, 23% visible
Pressure 29.91 in
Visibility 2.0 miles
Clouds Overcast 700 ft
Windchill 36 °F
Dew Point 34 °F
Humidity 94%
Rainfall 1.05 in
Snow Depth Not available.
UV 0 out of 12
Pollen .10 out of 12
Air Quality Not available.
Flu Activity Not available.
METAR K2W6 262129Z AUTO 30006G14KT 260V330 2SM OVC007 02/01 A2991 RMK AO1

More Conditions Fewer Conditions

Pressure 29.91 in
Visibility 2.0 miles
Clouds Overcast 700 ft
Windchill 36 °F
Dew Point 34 °F
Humidity 94%
Rainfall 1.05 in
Snow Depth Not available.
UV 0 out of 12
Pollen .10 out of 12
Air Quality Not available.
Flu Activity Not available.
METAR K2W6 262129Z AUTO 30006G14KT 260V330 2SM OVC007 02/01 A2991 RMK AO1

More Conditions Fewer Conditions

10-Day Weather Forecast

Almanac

Astronomy

Nov. 26, 2014 Rise Set
Actual Time
Civil Twilight
Nautical Twilight
Astronomical Twilight
Moon
Length of Visible Light
Length of Day
Tomorrow will be .
, % of the Moon is Illuminated

Today's Extremes

State Highs State Lows

Community

WunderPhotos

Upload Photos

1,773,872 photos uploaded!

WunderBlogs® & News

Nearby

Air Quality

  Air Quality AQ Index Pollutant
Not available.

Snow Depth

Station Depth Elevation

Earthquake Activity

City Distance Mag. Time & Date
Minimum magnitude displayed is 2.5.

Coastal Water Temperatures

Place Temperature

Nearby Weather Stations